sensor_id;sensor_type;location;lat;lon;timestamp;temperature;humidity
8099;DHT22;4092;47.876;9.372;2023-03-26T00:00:43;5.50;99.90
8099;DHT22;4092;47.876;9.372;2023-03-26T00:03:10;5.50;99.90
8099;DHT22;4092;47.876;9.372;2023-03-26T00:05:37;5.50;99.90
8099;DHT22;4092;47.876;9.372;2023-03-26T00:08:05;5.50;99.90
8099;DHT22;4092;47.876;9.372;2023-03-26T00:10:33;5.50;99.90
8099;DHT22;4092;47.876;9.372;2023-03-26T00:13:01;5.50;99.90
8099;DHT22;4092;47.876;9.372;2023-03-26T00:15:28;5.40;99.90
8099;DHT22;4092;47.876;9.372;2023-03-26T00:17:56;5.50;99.90
8099;DHT22;4092;47.876;9.372;2023-03-26T00:20:25;5.50;99.90
8099;DHT22;4092;47.876;9.372;2023-03-26T00:22:52;5.50;99.90
8099;DHT22;4092;47.876;9.372;2023-03-26T00:25:20;5.50;99.90
8099;DHT22;4092;47.876;9.372;2023-03-26T00:27:48;5.50;99.90
8099;DHT22;4092;47.876;9.372;2023-03-26T00:30:15;5.50;99.90
8099;DHT22;4092;47.876;9.372;2023-03-26T00:32:42;5.50;99.90
8099;DHT22;4092;47.876;9.372;2023-03-26T00:35:11;5.60;99.90
8099;DHT22;4092;47.876;9.372;2023-03-26T00:37:39;5.60;99.90
8099;DHT22;4092;47.876;9.372;2023-03-26T00:40:08;5.60;99.90
8099;DHT22;4092;47.876;9.372;2023-03-26T00:42:36;5.60;99.90
8099;DHT22;4092;47.876;9.372;2023-03-26T00:45:04;5.60;99.90
8099;DHT22;4092;47.876;9.372;2023-03-26T00:47:32;5.60;99.90
8099;DHT22;4092;47.876;9.372;2023-03-26T00:49:59;5.60;99.90
8099;DHT22;4092;47.876;9.372;2023-03-26T00:52:30;5.60;99.90
8099;DHT22;4092;47.876;9.372;2023-03-26T00:54:57;5.60;99.90
8099;DHT22;4092;47.876;9.372;2023-03-26T00:57:24;5.60;99.90
8099;DHT22;4092;47.876;9.372;2023-03-26T00:59:54;5.70;99.90
8099;DHT22;4092;47.876;9.372;2023-03-26T01:02:22;5.70;99.90
8099;DHT22;4092;47.876;9.372;2023-03-26T01:04:53;5.60;99.90
8099;DHT22;4092;47.876;9.372;2023-03-26T01:07:24;5.60;99.90
8099;DHT22;4092;47.876;9.372;2023-03-26T01:09:57;5.60;99.90
8099;DHT22;4092;47.876;9.372;2023-03-26T01:12:26;5.60;99.90
8099;DHT22;4092;47.876;9.372;2023-03-26T01:14:58;5.60;99.90
8099;DHT22;4092;47.876;9.372;2023-03-26T01:17:26;5.60;99.90
8099;DHT22;4092;47.876;9.372;2023-03-26T01:20:04;5.70;99.90
8099;DHT22;4092;47.876;9.372;2023-03-26T01:22:39;5.70;99.90
8099;DHT22;4092;47.876;9.372;2023-03-26T01:25:09;5.70;99.90
8099;DHT22;4092;47.876;9.372;2023-03-26T01:27:40;5.60;99.90
8099;DHT22;4092;47.876;9.372;2023-03-26T01:30:12;5.70;99.90
8099;DHT22;4092;47.876;9.372;2023-03-26T01:32:49;5.70;99.90
8099;DHT22;4092;47.876;9.372;2023-03-26T01:35:28;5.70;99.90
8099;DHT22;4092;47.876;9.372;2023-03-26T01:38:06;5.70;99.90
8099;DHT22;4092;47.876;9.372;2023-03-26T01:40:41;5.70;99.90
8099;DHT22;4092;47.876;9.372;2023-03-26T01:43:19;5.70;99.90
8099;DHT22;4092;47.876;9.372;2023-03-26T01:45:48;5.80;99.90
8099;DHT22;4092;47.876;9.372;2023-03-26T01:48:17;5.80;99.90
8099;DHT22;4092;47.876;9.372;2023-03-26T01:50:44;5.80;99.90
8099;DHT22;4092;47.876;9.372;2023-03-26T01:53:13;5.80;99.90
8099;DHT22;4092;47.876;9.372;2023-03-26T01:55:52;5.80;99.90
8099;DHT22;4092;47.876;9.372;2023-03-26T01:58:26;5.80;99.90
8099;DHT22;4092;47.876;9.372;2023-03-26T02:01:02;5.90;99.90
8099;DHT22;4092;47.876;9.372;2023-03-26T02:03:33;5.90;99.90
8099;DHT22;4092;47.876;9.372;2023-03-26T02:06:05;5.90;99.90
8099;DHT22;4092;47.876;9.372;2023-03-26T02:08:38;5.90;99.90
8099;DHT22;4092;47.876;9.372;2023-03-26T02:11:10;5.90;99.90
8099;DHT22;4092;47.876;9.372;2023-03-26T02:13:38;5.90;99.90
8099;DHT22;4092;47.876;9.372;2023-03-26T02:16:20;6.00;99.90
8099;DHT22;4092;47.876;9.372;2023-03-26T02:18:54;6.00;99.90
8099;DHT22;4092;47.876;9.372;2023-03-26T02:21:25;6.00;99.90
8099;DHT22;4092;47.876;9.372;2023-03-26T02:23:54;6.00;99.90
8099;DHT22;4092;47.876;9.372;2023-03-26T02:26:29;6.00;99.90
8099;DHT22;4092;47.876;9.372;2023-03-26T02:28:57;6.00;99.90
8099;DHT22;4092;47.876;9.372;2023-03-26T02:31:24;6.00;99.90
8099;DHT22;4092;47.876;9.372;2023-03-26T02:33:52;6.00;99.90
8099;DHT22;4092;47.876;9.372;2023-03-26T02:36:20;6.00;99.90
8099;DHT22;4092;47.876;9.372;2023-03-26T02:38:52;6.00;99.90
8099;DHT22;4092;47.876;9.372;2023-03-26T02:41:19;6.00;99.90
8099;DHT22;4092;47.876;9.372;2023-03-26T02:43:47;6.00;99.90
8099;DHT22;4092;47.876;9.372;2023-03-26T02:46:14;5.90;99.90
8099;DHT22;4092;47.876;9.372;2023-03-26T02:48:41;5.90;99.90
8099;DHT22;4092;47.876;9.372;2023-03-26T02:51:08;5.90;99.90
8099;DHT22;4092;47.876;9.372;2023-03-26T02:53:35;6.00;99.90
8099;DHT22;4092;47.876;9.372;2023-03-26T02:56:04;6.00;99.90
8099;DHT22;4092;47.876;9.372;2023-03-26T02:58:31;6.00;99.90
8099;DHT22;4092;47.876;9.372;2023-03-26T03:01:00;6.00;99.90
8099;DHT22;4092;47.876;9.372;2023-03-26T03:03:27;6.00;99.90
8099;DHT22;4092;47.876;9.372;2023-03-26T03:05:55;6.00;99.90
8099;DHT22;4092;47.876;9.372;2023-03-26T03:08:23;6.00;99.90
8099;DHT22;4092;47.876;9.372;2023-03-26T03:10:58;6.00;99.90
8099;DHT22;4092;47.876;9.372;2023-03-26T03:13:25;6.10;99.90
8099;DHT22;4092;47.876;9.372;2023-03-26T03:15:53;6.10;99.90
8099;DHT22;4092;47.876;9.372;2023-03-26T03:18:21;6.20;99.90
8099;DHT22;4092;47.876;9.372;2023-03-26T03:20:49;6.10;99.90
8099;DHT22;4092;47.876;9.372;2023-03-26T03:23:16;6.10;99.90
8099;DHT22;4092;47.876;9.372;2023-03-26T03:25:43;6.10;99.90
8099;DHT22;4092;47.876;9.372;2023-03-26T03:28:10;6.20;99.90
8099;DHT22;4092;47.876;9.372;2023-03-26T03:30:38;6.20;99.90
8099;DHT22;4092;47.876;9.372;2023-03-26T03:33:06;6.20;99.90
8099;DHT22;4092;47.876;9.372;2023-03-26T03:35:34;6.20;99.90
8099;DHT22;4092;47.876;9.372;2023-03-26T03:38:02;6.10;99.90
8099;DHT22;4092;47.876;9.372;2023-03-26T03:40:29;6.20;99.90
8099;DHT22;4092;47.876;9.372;2023-03-26T03:42:56;6.20;99.90
8099;DHT22;4092;47.876;9.372;2023-03-26T03:45:23;6.10;99.90
8099;DHT22;4092;47.876;9.372;2023-03-26T03:47:50;6.10;99.90
8099;DHT22;4092;47.876;9.372;2023-03-26T03:50:17;6.10;99.90
8099;DHT22;4092;47.876;9.372;2023-03-26T03:52:46;6.20;99.90
8099;DHT22;4092;47.876;9.372;2023-03-26T03:55:13;6.20;99.90
8099;DHT22;4092;47.876;9.372;2023-03-26T03:57:40;6.20;99.90
8099;DHT22;4092;47.876;9.372;2023-03-26T04:00:08;6.20;99.90
8099;DHT22;4092;47.876;9.372;2023-03-26T04:02:36;6.20;99.90
8099;DHT22;4092;47.876;9.372;2023-03-26T04:05:04;6.10;99.90
8099;DHT22;4092;47.876;9.372;2023-03-26T04:07:32;6.10;99.90
8099;DHT22;4092;47.876;9.372;2023-03-26T04:10:00;6.20;99.90
8099;DHT22;4092;47.876;9.372;2023-03-26T04:12:28;6.20;99.90
8099;DHT22;4092;47.876;9.372;2023-03-26T04:14:56;6.10;99.90
8099;DHT22;4092;47.876;9.372;2023-03-26T04:17:23;6.20;99.90
8099;DHT22;4092;47.876;9.372;2023-03-26T04:19:51;6.20;99.90
8099;DHT22;4092;47.876;9.372;2023-03-26T04:22:19;6.20;99.90
8099;DHT22;4092;47.876;9.372;2023-03-26T04:24:46;6.20;99.90
8099;DHT22;4092;47.876;9.372;2023-03-26T04:27:19;6.10;99.90
8099;DHT22;4092;47.876;9.372;2023-03-26T04:29:49;6.00;99.90
8099;DHT22;4092;47.876;9.372;2023-03-26T04:32:21;6.00;99.90
8099;DHT22;4092;47.876;9.372;2023-03-26T04:34:49;6.00;99.90
8099;DHT22;4092;47.876;9.372;2023-03-26T04:37:23;6.00;99.90
8099;DHT22;4092;47.876;9.372;2023-03-26T04:39:51;6.00;99.90
8099;DHT22;4092;47.876;9.372;2023-03-26T04:42:20;6.00;99.90
8099;DHT22;4092;47.876;9.372;2023-03-26T04:44:47;5.90;99.90
8099;DHT22;4092;47.876;9.372;2023-03-26T04:47:16;5.80;99.90
8099;DHT22;4092;47.876;9.372;2023-03-26T04:49:43;5.80;99.90
8099;DHT22;4092;47.876;9.372;2023-03-26T04:52:12;5.70;99.90
8099;DHT22;4092;47.876;9.372;2023-03-26T04:54:39;5.70;99.90
8099;DHT22;4092;47.876;9.372;2023-03-26T04:57:12;5.70;99.90
8099;DHT22;4092;47.876;9.372;2023-03-26T04:59:42;5.70;99.90
8099;DHT22;4092;47.876;9.372;2023-03-26T05:02:10;5.70;99.90
8099;DHT22;4092;47.876;9.372;2023-03-26T05:04:38;5.60;99.90
8099;DHT22;4092;47.876;9.372;2023-03-26T05:07:05;5.70;99.90
8099;DHT22;4092;47.876;9.372;2023-03-26T05:09:34;5.60;99.90
8099;DHT22;4092;47.876;9.372;2023-03-26T05:12:01;5.60;99.90
8099;DHT22;4092;47.876;9.372;2023-03-26T05:14:28;5.70;99.90
8099;DHT22;4092;47.876;9.372;2023-03-26T05:16:56;5.70;99.90
8099;DHT22;4092;47.876;9.372;2023-03-26T05:19:24;5.70;99.90
8099;DHT22;4092;47.876;9.372;2023-03-26T05:21:51;5.70;99.90
8099;DHT22;4092;47.876;9.372;2023-03-26T05:24:17;5.70;99.90
8099;DHT22;4092;47.876;9.372;2023-03-26T05:26:44;5.80;99.90
8099;DHT22;4092;47.876;9.372;2023-03-26T05:29:12;5.70;99.90
8099;DHT22;4092;47.876;9.372;2023-03-26T05:31:40;5.80;99.90
8099;DHT22;4092;47.876;9.372;2023-03-26T05:34:10;5.80;99.90
8099;DHT22;4092;47.876;9.372;2023-03-26T05:36:37;5.80;99.90
8099;DHT22;4092;47.876;9.372;2023-03-26T05:39:05;5.90;99.90
8099;DHT22;4092;47.876;9.372;2023-03-26T05:41:33;5.90;99.90
8099;DHT22;4092;47.876;9.372;2023-03-26T05:44:00;5.90;99.90
8099;DHT22;4092;47.876;9.372;2023-03-26T05:46:27;6.00;99.90
8099;DHT22;4092;47.876;9.372;2023-03-26T05:48:54;5.90;99.90
8099;DHT22;4092;47.876;9.372;2023-03-26T05:51:22;5.90;99.90
8099;DHT22;4092;47.876;9.372;2023-03-26T05:53:50;5.90;99.90
8099;DHT22;4092;47.876;9.372;2023-03-26T05:56:17;5.90;99.90
8099;DHT22;4092;47.876;9.372;2023-03-26T05:58:44;6.00;99.90
8099;DHT22;4092;47.876;9.372;2023-03-26T06:01:13;5.90;99.90
8099;DHT22;4092;47.876;9.372;2023-03-26T06:03:47;5.90;99.90
8099;DHT22;4092;47.876;9.372;2023-03-26T06:06:30;6.00;99.90
8099;DHT22;4092;47.876;9.372;2023-03-26T06:08:58;6.00;99.90
8099;DHT22;4092;47.876;9.372;2023-03-26T06:11:25;6.00;99.90
8099;DHT22;4092;47.876;9.372;2023-03-26T06:13:51;6.00;99.90
8099;DHT22;4092;47.876;9.372;2023-03-26T06:16:18;6.00;99.90
8099;DHT22;4092;47.876;9.372;2023-03-26T06:18:45;6.00;99.90
8099;DHT22;4092;47.876;9.372;2023-03-26T06:21:12;6.00;99.90
8099;DHT22;4092;47.876;9.372;2023-03-26T06:23:41;6.00;99.90
8099;DHT22;4092;47.876;9.372;2023-03-26T06:26:08;6.10;99.90
8099;DHT22;4092;47.876;9.372;2023-03-26T06:28:35;6.10;99.90
8099;DHT22;4092;47.876;9.372;2023-03-26T06:31:02;6.20;99.90
8099;DHT22;4092;47.876;9.372;2023-03-26T06:33:29;6.20;99.90
8099;DHT22;4092;47.876;9.372;2023-03-26T06:35:56;6.30;99.90
8099;DHT22;4092;47.876;9.372;2023-03-26T06:38:23;6.30;99.90
8099;DHT22;4092;47.876;9.372;2023-03-26T06:40:52;6.20;99.90
8099;DHT22;4092;47.876;9.372;2023-03-26T06:43:19;6.30;99.90
8099;DHT22;4092;47.876;9.372;2023-03-26T06:45:58;6.30;99.90
8099;DHT22;4092;47.876;9.372;2023-03-26T06:48:28;6.30;99.90
8099;DHT22;4092;47.876;9.372;2023-03-26T06:50:55;6.40;99.90
8099;DHT22;4092;47.876;9.372;2023-03-26T06:53:22;6.30;99.90
8099;DHT22;4092;47.876;9.372;2023-03-26T06:55:49;6.30;99.90
8099;DHT22;4092;47.876;9.372;2023-03-26T06:58:19;6.20;99.90
8099;DHT22;4092;47.876;9.372;2023-03-26T07:00:47;6.20;99.90
8099;DHT22;4092;47.876;9.372;2023-03-26T07:03:14;6.30;99.90
8099;DHT22;4092;47.876;9.372;2023-03-26T07:05:41;6.30;99.90
8099;DHT22;4092;47.876;9.372;2023-03-26T07:08:15;6.30;99.90
8099;DHT22;4092;47.876;9.372;2023-03-26T07:10:47;6.20;99.90
8099;DHT22;4092;47.876;9.372;2023-03-26T07:13:14;6.20;99.90
8099;DHT22;4092;47.876;9.372;2023-03-26T07:15:43;6.10;99.90
8099;DHT22;4092;47.876;9.372;2023-03-26T07:18:10;6.10;99.90
8099;DHT22;4092;47.876;9.372;2023-03-26T07:20:37;6.10;99.90
8099;DHT22;4092;47.876;9.372;2023-03-26T07:23:05;6.00;99.90
8099;DHT22;4092;47.876;9.372;2023-03-26T07:25:35;6.10;99.90
8099;DHT22;4092;47.876;9.372;2023-03-26T07:28:09;6.00;99.90
8099;DHT22;4092;47.876;9.372;2023-03-26T07:30:48;6.00;99.90
8099;DHT22;4092;47.876;9.372;2023-03-26T07:33:21;6.00;99.90
8099;DHT22;4092;47.876;9.372;2023-03-26T07:35:54;6.00;99.90
8099;DHT22;4092;47.876;9.372;2023-03-26T07:38:36;5.90;99.90
8099;DHT22;4092;47.876;9.372;2023-03-26T07:41:13;5.80;99.90
8099;DHT22;4092;47.876;9.372;2023-03-26T07:43:56;5.80;99.90
8099;DHT22;4092;47.876;9.372;2023-03-26T07:46:30;5.80;99.90
8099;DHT22;4092;47.876;9.372;2023-03-26T07:48:58;5.80;99.90
8099;DHT22;4092;47.876;9.372;2023-03-26T07:51:27;5.80;99.90
8099;DHT22;4092;47.876;9.372;2023-03-26T07:53:54;5.70;99.90
8099;DHT22;4092;47.876;9.372;2023-03-26T07:56:25;5.70;99.90
8099;DHT22;4092;47.876;9.372;2023-03-26T07:59:05;5.70;99.90
8099;DHT22;4092;47.876;9.372;2023-03-26T08:01:47;5.70;99.90
8099;DHT22;4092;47.876;9.372;2023-03-26T08:07:20;5.70;99.90
8099;DHT22;4092;47.876;9.372;2023-03-26T08:10:00;5.60;99.90
8099;DHT22;4092;47.876;9.372;2023-03-26T08:12:39;5.60;99.90
8099;DHT22;4092;47.876;9.372;2023-03-26T08:15:14;5.60;99.90
8099;DHT22;4092;47.876;9.372;2023-03-26T08:17:49;5.60;99.90
8099;DHT22;4092;47.876;9.372;2023-03-26T08:20:27;5.60;99.90
8099;DHT22;4092;47.876;9.372;2023-03-26T08:23:04;5.60;99.90
8099;DHT22;4092;47.876;9.372;2023-03-26T08:25:38;5.60;99.90
8099;DHT22;4092;47.876;9.372;2023-03-26T08:28:16;5.60;99.90
8099;DHT22;4092;47.876;9.372;2023-03-26T08:30:47;5.60;99.90
8099;DHT22;4092;47.876;9.372;2023-03-26T08:33:18;5.70;99.90
8099;DHT22;4092;47.876;9.372;2023-03-26T08:35:46;5.70;99.90
8099;DHT22;4092;47.876;9.372;2023-03-26T08:38:15;5.70;99.90
8099;DHT22;4092;47.876;9.372;2023-03-26T08:44:26;5.80;99.90
8099;DHT22;4092;47.876;9.372;2023-03-26T08:47:32;5.80;99.90
8099;DHT22;4092;47.876;9.372;2023-03-26T08:53:49;5.80;99.90
8099;DHT22;4092;47.876;9.372;2023-03-26T08:56:25;5.70;99.90
8099;DHT22;4092;47.876;9.372;2023-03-26T08:59:36;5.70;99.90
8099;DHT22;4092;47.876;9.372;2023-03-26T09:02:24;5.70;99.90
8099;DHT22;4092;47.876;9.372;2023-03-26T09:08:43;5.50;99.90
8099;DHT22;4092;47.876;9.372;2023-03-26T09:14:52;5.40;99.90
8099;DHT22;4092;47.876;9.372;2023-03-26T09:20:57;5.40;99.90
8099;DHT22;4092;47.876;9.372;2023-03-26T09:27:14;5.30;99.90
8099;DHT22;4092;47.876;9.372;2023-03-26T09:36:19;5.40;99.90
8099;DHT22;4092;47.876;9.372;2023-03-26T09:38:52;5.40;99.90
8099;DHT22;4092;47.876;9.372;2023-03-26T09:41:31;5.40;99.90
8099;DHT22;4092;47.876;9.372;2023-03-26T09:50:14;5.50;99.90
8099;DHT22;4092;47.876;9.372;2023-03-26T09:52:57;5.60;99.90
8099;DHT22;4092;47.876;9.372;2023-03-26T09:55:41;5.60;99.90
8099;DHT22;4092;47.876;9.372;2023-03-26T09:58:27;5.60;99.90
8099;DHT22;4092;47.876;9.372;2023-03-26T10:00:59;5.60;99.90
8099;DHT22;4092;47.876;9.372;2023-03-26T10:03:40;5.60;99.90
8099;DHT22;4092;47.876;9.372;2023-03-26T10:06:30;5.50;99.90
8099;DHT22;4092;47.876;9.372;2023-03-26T10:09:22;5.60;99.90
8099;DHT22;4092;47.876;9.372;2023-03-26T10:12:00;5.70;99.90
8099;DHT22;4092;47.876;9.372;2023-03-26T10:14:34;5.90;99.90
8099;DHT22;4092;47.876;9.372;2023-03-26T10:17:25;6.00;99.90
8099;DHT22;4092;47.876;9.372;2023-03-26T10:20:06;6.20;99.90
8099;DHT22;4092;47.876;9.372;2023-03-26T10:22:51;6.40;99.90
8099;DHT22;4092;47.876;9.372;2023-03-26T10:25:31;6.60;99.90
8099;DHT22;4092;47.876;9.372;2023-03-26T10:28:15;6.70;99.90
8099;DHT22;4092;47.876;9.372;2023-03-26T10:31:00;6.80;99.90
8099;DHT22;4092;47.876;9.372;2023-03-26T10:33:40;6.80;99.90
8099;DHT22;4092;47.876;9.372;2023-03-26T10:36:23;6.80;99.90
8099;DHT22;4092;47.876;9.372;2023-03-26T10:39:21;6.90;99.90
8099;DHT22;4092;47.876;9.372;2023-03-26T10:45:08;7.10;99.90
8099;DHT22;4092;47.876;9.372;2023-03-26T10:47:54;7.30;99.90
8099;DHT22;4092;47.876;9.372;2023-03-26T10:53:25;7.20;99.90
8099;DHT22;4092;47.876;9.372;2023-03-26T10:55:57;7.20;99.90
8099;DHT22;4092;47.876;9.372;2023-03-26T10:58:27;7.20;99.90
8099;DHT22;4092;47.876;9.372;2023-03-26T11:00:59;7.30;99.90
8099;DHT22;4092;47.876;9.372;2023-03-26T11:03:45;7.40;99.90
8099;DHT22;4092;47.876;9.372;2023-03-26T11:06:29;7.40;99.90
8099;DHT22;4092;47.876;9.372;2023-03-26T11:09:03;7.40;99.90
8099;DHT22;4092;47.876;9.372;2023-03-26T11:11:38;7.30;99.90
8099;DHT22;4092;47.876;9.372;2023-03-26T11:14:15;7.30;99.90
8099;DHT22;4092;47.876;9.372;2023-03-26T11:16:56;7.30;99.90
8099;DHT22;4092;47.876;9.372;2023-03-26T11:19:30;7.20;99.90
8099;DHT22;4092;47.876;9.372;2023-03-26T11:22:07;7.30;99.90
8099;DHT22;4092;47.876;9.372;2023-03-26T11:25:00;7.30;99.90
8099;DHT22;4092;47.876;9.372;2023-03-26T11:27:38;7.30;99.90
8099;DHT22;4092;47.876;9.372;2023-03-26T11:30:17;7.30;99.90
8099;DHT22;4092;47.876;9.372;2023-03-26T11:32:49;7.30;99.90
8099;DHT22;4092;47.876;9.372;2023-03-26T11:35:20;7.20;99.90
8099;DHT22;4092;47.876;9.372;2023-03-26T11:37:52;7.30;99.90
8099;DHT22;4092;47.876;9.372;2023-03-26T11:40:22;7.30;99.90
8099;DHT22;4092;47.876;9.372;2023-03-26T11:42:55;7.30;99.90
8099;DHT22;4092;47.876;9.372;2023-03-26T11:45:25;7.30;99.90
8099;DHT22;4092;47.876;9.372;2023-03-26T11:47:57;7.20;99.90
8099;DHT22;4092;47.876;9.372;2023-03-26T11:50:27;7.30;99.90
8099;DHT22;4092;47.876;9.372;2023-03-26T11:53:05;7.30;99.90
8099;DHT22;4092;47.876;9.372;2023-03-26T11:55:37;7.30;99.90
8099;DHT22;4092;47.876;9.372;2023-03-26T11:58:21;7.30;99.90
8099;DHT22;4092;47.876;9.372;2023-03-26T12:00:51;7.30;99.90
8099;DHT22;4092;47.876;9.372;2023-03-26T12:03:18;7.40;99.90
8099;DHT22;4092;47.876;9.372;2023-03-26T12:05:48;7.40;99.90
8099;DHT22;4092;47.876;9.372;2023-03-26T12:08:25;7.40;99.90
8099;DHT22;4092;47.876;9.372;2023-03-26T12:11:04;7.50;99.90
8099;DHT22;4092;47.876;9.372;2023-03-26T12:13:36;7.70;99.90
8099;DHT22;4092;47.876;9.372;2023-03-26T12:16:09;8.00;99.90
8099;DHT22;4092;47.876;9.372;2023-03-26T12:18:38;8.20;99.90
8099;DHT22;4092;47.876;9.372;2023-03-26T12:21:12;8.40;99.90
8099;DHT22;4092;47.876;9.372;2023-03-26T12:23:52;8.40;99.90
8099;DHT22;4092;47.876;9.372;2023-03-26T12:26:29;8.60;99.90
8099;DHT22;4092;47.876;9.372;2023-03-26T12:29:05;8.70;99.90
8099;DHT22;4092;47.876;9.372;2023-03-26T12:31:53;8.80;99.90
8099;DHT22;4092;47.876;9.372;2023-03-26T12:34:22;9.00;99.90
8099;DHT22;4092;47.876;9.372;2023-03-26T12:36:56;9.10;99.90
8099;DHT22;4092;47.876;9.372;2023-03-26T12:39:33;9.40;99.90
8099;DHT22;4092;47.876;9.372;2023-03-26T12:42:02;9.60;99.90
8099;DHT22;4092;47.876;9.372;2023-03-26T12:44:35;9.80;99.90
8099;DHT22;4092;47.876;9.372;2023-03-26T12:47:14;9.80;99.90
8099;DHT22;4092;47.876;9.372;2023-03-26T12:49:42;9.90;99.90
8099;DHT22;4092;47.876;9.372;2023-03-26T12:52:28;9.70;99.90
8099;DHT22;4092;47.876;9.372;2023-03-26T12:55:07;9.70;99.90
8099;DHT22;4092;47.876;9.372;2023-03-26T12:57:47;9.50;99.90
8099;DHT22;4092;47.876;9.372;2023-03-26T13:00:31;9.40;99.90
8099;DHT22;4092;47.876;9.372;2023-03-26T13:06:07;7.30;99.90
8099;DHT22;4092;47.876;9.372;2023-03-26T13:08:55;7.10;99.90
8099;DHT22;4092;47.876;9.372;2023-03-26T13:11:36;7.10;99.90
8099;DHT22;4092;47.876;9.372;2023-03-26T13:14:32;7.00;99.90
8099;DHT22;4092;47.876;9.372;2023-03-26T13:17:03;7.10;99.90
8099;DHT22;4092;47.876;9.372;2023-03-26T13:19:38;7.10;99.90
8099;DHT22;4092;47.876;9.372;2023-03-26T13:22:16;7.10;99.90
8099;DHT22;4092;47.876;9.372;2023-03-26T13:24:52;7.10;99.90
8099;DHT22;4092;47.876;9.372;2023-03-26T13:27:39;7.10;99.90
8099;DHT22;4092;47.876;9.372;2023-03-26T13:30:21;7.00;99.90
8099;DHT22;4092;47.876;9.372;2023-03-26T13:32:58;7.10;99.90
8099;DHT22;4092;47.876;9.372;2023-03-26T13:35:32;7.20;99.90
8099;DHT22;4092;47.876;9.372;2023-03-26T13:38:06;7.20;99.90
8099;DHT22;4092;47.876;9.372;2023-03-26T13:40:43;7.30;99.90
8099;DHT22;4092;47.876;9.372;2023-03-26T13:43:34;7.40;99.90
8099;DHT22;4092;47.876;9.372;2023-03-26T13:46:09;7.60;99.90
8099;DHT22;4092;47.876;9.372;2023-03-26T13:48:41;8.30;99.90
8099;DHT22;4092;47.876;9.372;2023-03-26T13:51:15;8.80;99.90
8099;DHT22;4092;47.876;9.372;2023-03-26T13:53:46;9.50;99.90
8099;DHT22;4092;47.876;9.372;2023-03-26T13:56:19;9.80;99.90
8099;DHT22;4092;47.876;9.372;2023-03-26T13:58:53;10.30;99.90
8099;DHT22;4092;47.876;9.372;2023-03-26T14:01:24;10.50;99.90
8099;DHT22;4092;47.876;9.372;2023-03-26T14:04:01;10.40;99.90
8099;DHT22;4092;47.876;9.372;2023-03-26T14:06:42;10.20;99.90
8099;DHT22;4092;47.876;9.372;2023-03-26T14:09:15;9.70;99.90
8099;DHT22;4092;47.876;9.372;2023-03-26T14:11:51;9.40;99.90
8099;DHT22;4092;47.876;9.372;2023-03-26T14:14:30;9.20;99.90
8099;DHT22;4092;47.876;9.372;2023-03-26T14:17:01;9.00;99.90
8099;DHT22;4092;47.876;9.372;2023-03-26T14:19:43;8.90;99.90
8099;DHT22;4092;47.876;9.372;2023-03-26T14:22:16;8.80;99.90
8099;DHT22;4092;47.876;9.372;2023-03-26T14:24:56;8.70;99.90
8099;DHT22;4092;47.876;9.372;2023-03-26T14:27:41;8.50;99.90
8099;DHT22;4092;47.876;9.372;2023-03-26T14:30:28;8.20;99.90
8099;DHT22;4092;47.876;9.372;2023-03-26T14:33:10;7.90;99.90
8099;DHT22;4092;47.876;9.372;2023-03-26T14:35:41;7.50;99.90
8099;DHT22;4092;47.876;9.372;2023-03-26T14:38:36;7.30;99.90
8099;DHT22;4092;47.876;9.372;2023-03-26T14:41:17;7.10;99.90
8099;DHT22;4092;47.876;9.372;2023-03-26T14:47:10;6.90;99.90
8099;DHT22;4092;47.876;9.372;2023-03-26T14:50:04;6.90;99.90
8099;DHT22;4092;47.876;9.372;2023-03-26T14:52:46;6.80;99.90
8099;DHT22;4092;47.876;9.372;2023-03-26T14:55:17;6.80;99.90
8099;DHT22;4092;47.876;9.372;2023-03-26T14:58:16;6.90;99.90
8099;DHT22;4092;47.876;9.372;2023-03-26T15:01:12;7.00;99.90
8099;DHT22;4092;47.876;9.372;2023-03-26T15:04:29;7.10;99.90
8099;DHT22;4092;47.876;9.372;2023-03-26T15:07:37;7.10;99.90
8099;DHT22;4092;47.876;9.372;2023-03-26T15:10:51;7.20;99.90
8099;DHT22;4092;47.876;9.372;2023-03-26T15:13:47;7.10;99.90
8099;DHT22;4092;47.876;9.372;2023-03-26T15:16:45;7.10;99.90
8099;DHT22;4092;47.876;9.372;2023-03-26T15:19:49;7.10;99.90
8099;DHT22;4092;47.876;9.372;2023-03-26T15:23:01;7.10;99.90
8099;DHT22;4092;47.876;9.372;2023-03-26T15:26:02;7.10;99.90
8099;DHT22;4092;47.876;9.372;2023-03-26T15:29:04;7.00;99.90
8099;DHT22;4092;47.876;9.372;2023-03-26T15:32:07;7.00;99.90
8099;DHT22;4092;47.876;9.372;2023-03-26T15:35:20;6.80;99.90
8099;DHT22;4092;47.876;9.372;2023-03-26T15:38:14;6.70;99.90
8099;DHT22;4092;47.876;9.372;2023-03-26T15:40:55;6.10;99.90
8099;DHT22;4092;47.876;9.372;2023-03-26T15:46:31;5.30;99.90
8099;DHT22;4092;47.876;9.372;2023-03-26T15:49:05;4.90;99.90
8099;DHT22;4092;47.876;9.372;2023-03-26T15:51:47;4.80;99.90
8099;DHT22;4092;47.876;9.372;2023-03-26T15:54:20;4.80;99.90
8099;DHT22;4092;47.876;9.372;2023-03-26T15:57:06;4.80;99.90
8099;DHT22;4092;47.876;9.372;2023-03-26T15:59:59;4.80;99.90
8099;DHT22;4092;47.876;9.372;2023-03-26T16:02:42;4.90;99.90
8099;DHT22;4092;47.876;9.372;2023-03-26T16:05:32;4.90;99.90
8099;DHT22;4092;47.876;9.372;2023-03-26T16:08:11;4.90;99.90
8099;DHT22;4092;47.876;9.372;2023-03-26T16:10:49;4.90;99.90
8099;DHT22;4092;47.876;9.372;2023-03-26T16:13:37;4.90;99.90
8099;DHT22;4092;47.876;9.372;2023-03-26T16:19:56;4.90;99.90
8099;DHT22;4092;47.876;9.372;2023-03-26T16:22:52;4.80;99.90
8099;DHT22;4092;47.876;9.372;2023-03-26T16:25:27;4.70;99.90
8099;DHT22;4092;47.876;9.372;2023-03-26T16:28:29;4.70;99.90
8099;DHT22;4092;47.876;9.372;2023-03-26T16:31:26;4.70;99.90
8099;DHT22;4092;47.876;9.372;2023-03-26T16:34:19;4.60;99.90
8099;DHT22;4092;47.876;9.372;2023-03-26T16:36:47;4.60;99.90
8099;DHT22;4092;47.876;9.372;2023-03-26T16:39:23;4.60;99.90
8099;DHT22;4092;47.876;9.372;2023-03-26T16:42:02;4.60;99.90
8099;DHT22;4092;47.876;9.372;2023-03-26T16:44:39;4.60;99.90
8099;DHT22;4092;47.876;9.372;2023-03-26T16:47:23;4.60;99.90
8099;DHT22;4092;47.876;9.372;2023-03-26T16:50:07;4.50;99.90
8099;DHT22;4092;47.876;9.372;2023-03-26T16:52:46;4.60;99.90
8099;DHT22;4092;47.876;9.372;2023-03-26T16:55:24;4.50;99.90
8099;DHT22;4092;47.876;9.372;2023-03-26T16:58:02;4.50;99.90
8099;DHT22;4092;47.876;9.372;2023-03-26T17:00:48;4.50;99.90
8099;DHT22;4092;47.876;9.372;2023-03-26T17:03:31;4.50;99.90
8099;DHT22;4092;47.876;9.372;2023-03-26T17:06:25;4.50;99.90
8099;DHT22;4092;47.876;9.372;2023-03-26T17:09:01;4.50;99.90
8099;DHT22;4092;47.876;9.372;2023-03-26T17:11:40;4.50;99.90
8099;DHT22;4092;47.876;9.372;2023-03-26T17:14:21;4.40;99.90
8099;DHT22;4092;47.876;9.372;2023-03-26T17:17:30;4.40;99.90
8099;DHT22;4092;47.876;9.372;2023-03-26T17:20:08;4.40;99.90
8099;DHT22;4092;47.876;9.372;2023-03-26T17:22:40;4.40;99.90
8099;DHT22;4092;47.876;9.372;2023-03-26T17:25:20;4.40;99.90
8099;DHT22;4092;47.876;9.372;2023-03-26T17:27:55;4.40;99.90
8099;DHT22;4092;47.876;9.372;2023-03-26T17:31:02;4.30;99.90
8099;DHT22;4092;47.876;9.372;2023-03-26T17:33:32;4.30;99.90
8099;DHT22;4092;47.876;9.372;2023-03-26T17:44:42;4.20;99.90
8099;DHT22;4092;47.876;9.372;2023-03-26T17:47:37;4.20;99.90
8099;DHT22;4092;47.876;9.372;2023-03-26T17:50:13;4.20;99.90
8099;DHT22;4092;47.876;9.372;2023-03-26T17:52:48;4.20;99.90
8099;DHT22;4092;47.876;9.372;2023-03-26T17:55:18;4.20;99.90
8099;DHT22;4092;47.876;9.372;2023-03-26T17:57:49;4.10;99.90
8099;DHT22;4092;47.876;9.372;2023-03-26T18:00:21;4.10;99.90
8099;DHT22;4092;47.876;9.372;2023-03-26T18:02:55;4.00;99.90
8099;DHT22;4092;47.876;9.372;2023-03-26T18:05:26;4.00;99.90
8099;DHT22;4092;47.876;9.372;2023-03-26T18:08:19;3.90;99.90
8099;DHT22;4092;47.876;9.372;2023-03-26T18:11:05;3.90;99.90
8099;DHT22;4092;47.876;9.372;2023-03-26T18:14:11;4.00;99.90